| time (UTC) | temp F | wind direction | speed MPH | gust MPH | rain 1hr in | rain 24hr in | rain mn in | humidity % | barometer mb |
| 20260906031148 | 78 | 25 | 0.0 | 0.0 | 0.00 | 0.00 | 0.00 | 98 | 1028.6 |
| 20260906030647 | 79 | 16 | 0.0 | 0.0 | 0.00 | 0.00 | 0.00 | 97 | 1028.8 |
| 20260906030143 | 79 | 22 | 0.0 | 0.0 | 0.00 | 0.00 | 0.00 | 97 | 1028.6 |
| 20260906025642 | 80 | 26 | 0.0 | 0.0 | 0.00 | 0.00 | 0.00 | 97 | 1028.6 |
| 20260906025142 | 80 | 26 | 0.0 | 0.0 | 0.00 | 0.00 | 0.00 | 97 | 1028.6 |
| 20260906024637 | 80 | 47 | 0.0 | 0.0 | 0.00 | 0.00 | 0.00 | 97 | 1028.5 |
| 20260906024136 | 80 | 19 | 0.0 | 0.0 | 0.00 | 0.00 | 0.00 | 96 | 1028.5 |
| 20260906023632 | 80 | 5 | 0.0 | 0.0 | 0.00 | 0.00 | 0.00 | 96 | 1028.4 |
| 20260906023133 | 80 | 5 | 0.0 | 0.0 | 0.00 | 0.00 | 0.00 | 96 | 1028.4 |
| 20260906022633 | 80 | 15 | 0.0 | 0.0 | 0.00 | 0.00 | 0.00 | 96 | 1028.3 |
| 20260906022129 | 80 | 5 | 0.0 | 0.0 | 0.00 | 0.00 | 0.00 | 95 | 1028.5 |
| 20260906021624 | 80 | 18 | 0.0 | 0.0 | 0.00 | 0.00 | 0.00 | 94 | 1028.2 |
| 20260906021123 | 80 | 26 | 0.0 | 0.0 | 0.00 | 0.00 | 0.00 | 94 | 1028.3 |
| 20260906020623 | 80 | 23 | 0.0 | 0.0 | 0.00 | 0.00 | 0.00 | 94 | 1028.1 |
| 20260906020118 | 81 | 24 | 0.0 | 0.0 | 0.00 | 0.00 | 0.00 | 94 | 1027.9 |
| 20260906015612 | 81 | 23 | 0.0 | 0.0 | 0.00 | 0.00 | 0.00 | 93 | 1028.1 |
| 20260906015111 | 81 | 26 | 0.0 | 0.0 | 0.00 | 0.00 | 0.00 | 93 | 1027.9 |
| 20260906014606 | 81 | 26 | 0.0 | 0.0 | 0.00 | 0.00 | 0.00 | 92 | 1027.9 |
| 20260906014102 | 81 | 22 | 0.0 | 0.0 | 0.00 | 0.00 | 0.00 | 92 | 1028.0 |
| 20260906013557 | 82 | 28 | 0.0 | 0.0 | 0.00 | 0.00 | 0.00 | 92 | 1027.7 |
| 20260906013052 | 82 | 25 | 0.0 | 0.0 | 0.00 | 0.00 | 0.00 | 92 | 1027.7 |
| 20260906012547 | 82 | 26 | 0.0 | 0.0 | 0.00 | 0.00 | 0.00 | 92 | 1027.7 |
| 20260906012047 | 82 | 33 | 0.0 | 0.0 | 0.00 | 0.00 | 0.00 | 91 | 1027.7 |
| 20260906011543 | 82 | 58 | 0.0 | 0.0 | 0.00 | 0.00 | 0.00 | 91 | 1027.6 |
| 20260906011042 | 83 | 38 | 0.0 | 0.0 | 0.00 | 0.00 | 0.00 | 90 | 1027.5 |
| 20260906010538 | 84 | 35 | 0.0 | 0.0 | 0.00 | 0.00 | 0.00 | 89 | 1027.6 |
| 20260906010034 | 84 | 86 | 0.0 | 0.0 | 0.00 | 0.00 | 0.00 | 88 | 1027.9 |
| 20260906005533 | 84 | 23 | 0.0 | 0.0 | 0.00 | 0.00 | 0.00 | 86 | 1027.6 |
| 20260906005033 | 85 | 23 | 0.0 | 0.0 | 0.00 | 0.00 | 0.00 | 85 | 1027.4 |
| 20260906004532 | 85 | 34 | 0.0 | 0.0 | 0.00 | 0.00 | 0.00 | 85 | 1027.4 |
| 20260906004027 | 86 | 48 | 0.0 | 0.0 | 0.00 | 0.00 | 0.00 | 85 | 1027.3 |
| 20260906003523 | 86 | 44 | 0.0 | 0.0 | 0.00 | 0.00 | 0.00 | 84 | 1027.2 |
| 20260906003019 | 87 | 47 | 0.0 | 0.0 | 0.00 | 0.00 | 0.00 | 83 | 1027.3 |
| 20260906002519 | 88 | 58 | 0.0 | 0.0 | 0.00 | 0.00 | 0.00 | 81 | 1027.5 |
| 20260906002014 | 89 | 48 | 0.0 | 0.0 | 0.00 | 0.00 | 0.00 | 80 | 1027.2 |
| 20260906001509 | 90 | 62 | 0.0 | 0.0 | 0.00 | 0.00 | 0.00 | 78 | 1027.4 |
| 20260906001004 | 90 | 73 | 0.0 | 0.0 | 0.00 | 0.00 | 0.00 | 76 | 1027.5 |
| 20260906000500 | 91 | 52 | 0.0 | 0.0 | 0.00 | 0.00 | 0.00 | 74 | 1027.6 |
| 20260905235954 | 92 | 57 | 0.0 | 0.0 | 0.00 | 0.00 | 0.00 | 70 | 1027.5 |
| 20260905235454 | 93 | 56 | 0.0 | 0.0 | 0.00 | 0.00 | 0.00 | 67 | 1027.7 |
| 20260905234948 | 95 | 45 | 0.0 | 0.0 | 0.00 | 0.00 | 0.00 | 63 | 1027.6 |
| 20260905234439 | 96 | 45 | 0.0 | 0.0 | 0.00 | 0.00 | 0.00 | 60 | 1027.7 |
| 20260905233938 | 96 | 21 | 0.0 | 1.0 | 0.00 | 0.00 | 0.00 | 59 | 1027.7 |
| 20260905233434 | 96 | 37 | 0.0 | 0.0 | 0.00 | 0.00 | 0.00 | 58 | 1027.6 |
| 20260905232932 | 97 | 35 | 0.0 | 1.0 | 0.00 | 0.00 | 0.00 | 58 | 1027.9 |
| 20260905232429 | 97 | 32 | 0.0 | 0.0 | 0.00 | 0.00 | 0.00 | 57 | 1027.5 |
| 20260905231924 | 98 | 57 | 0.0 | 0.0 | 0.00 | 0.00 | 0.00 | 56 | 1027.6 |
| 20260905231420 | 98 | 31 | 2.0 | 3.0 | 0.00 | 0.00 | 0.00 | 55 | 1027.8 |
| 20260905230916 | 99 | 69 | 0.0 | 0.0 | 0.00 | 0.00 | 0.00 | 52 | 1027.6 |
| 20260905230415 | 100 | 40 | 1.0 | 2.0 | 0.00 | 0.00 | 0.00 | 52 | 1027.5 |
| 20260905225913 | 100 | 59 | 1.0 | 1.0 | 0.00 | 0.00 | 0.00 | 51 | 1027.5 |
| 20260905225409 | 100 | 37 | 1.0 | 1.0 | 0.00 | 0.00 | 0.00 | 51 | 1027.6 |
| 20260905224903 | 101 | 37 | 0.0 | 1.0 | 0.00 | 0.00 | 0.00 | 50 | 1027.4 |
| 20260905224359 | 100 | 43 | 0.0 | 0.0 | 0.00 | 0.00 | 0.00 | 51 | 1027.5 |
| 20260905223853 | 100 | 33 | 1.0 | 2.0 | 0.00 | 0.00 | 0.00 | 50 | 1027.5 |
| 20260905223352 | 100 | 27 | 2.0 | 2.0 | 0.00 | 0.00 | 0.00 | 50 | 1027.7 |
| 20260905222851 | 100 | 35 | 1.0 | 2.0 | 0.00 | 0.00 | 0.00 | 50 | 1027.7 |
| 20260905222350 | 101 | 53 | 2.0 | 2.0 | 0.00 | 0.00 | 0.00 | 49 | 1027.8 |
| 20260905221846 | 101 | 21 | 0.0 | 0.0 | 0.00 | 0.00 | 0.00 | 50 | 1027.5 |
| 20260905221343 | 101 | 35 | 0.0 | 1.0 | 0.00 | 0.00 | 0.00 | 50 | 1027.7 |
| 20260905220839 | 101 | 35 | 0.0 | 0.0 | 0.00 | 0.00 | 0.00 | 48 | 1027.7 |
| 20260905220335 | 100 | 65 | 0.0 | 0.0 | 0.00 | 0.00 | 0.00 | 48 | 1027.5 |
| 20260905215834 | 101 | 96 | 0.0 | 0.0 | 0.00 | 0.00 | 0.00 | 50 | 1027.7 |
| 20260905215330 | 102 | 8 | 2.0 | 2.0 | 0.00 | 0.00 | 0.00 | 47 | 1027.7 |
| 20260905214826 | 102 | 357 | 0.0 | 0.0 | 0.00 | 0.00 | 0.00 | 47 | 1027.5 |
| 20260905214321 | 102 | 22 | 2.0 | 3.0 | 0.00 | 0.00 | 0.00 | 48 | 1027.6 |
| 20260905213816 | 102 | 42 | 0.0 | 0.0 | 0.00 | 0.00 | 0.00 | 48 | 1027.7 |
| 20260905213312 | 102 | 353 | 1.0 | 2.0 | 0.00 | 0.00 | 0.00 | 48 | 1027.7 |
| 20260905212813 | 101 | 0 | 1.0 | 2.0 | 0.00 | 0.00 | 0.00 | 49 | 1027.7 |
| 20260905212313 | 101 | 40 | 1.0 | 1.0 | 0.00 | 0.00 | 0.00 | 49 | 1027.7 |
| 20260905211813 | 102 | 10 | 1.0 | 1.0 | 0.00 | 0.00 | 0.00 | 48 | 1027.7 |
| 20260905211308 | 102 | 75 | 0.0 | 0.0 | 0.00 | 0.00 | 0.00 | 50 | 1027.8 |
| 20260905210804 | 101 | 60 | 1.0 | 2.0 | 0.00 | 0.00 | 0.00 | 48 | 1027.9 |
| 20260905210304 | 102 | 2 | 0.0 | 1.0 | 0.00 | 0.00 | 0.00 | 50 | 1027.9 |
| 20260905205803 | 101 | 42 | 0.0 | 0.0 | 0.00 | 0.00 | 0.00 | 48 | 1028.1 |
| 20260905205258 | 101 | 54 | 3.0 | 3.0 | 0.00 | 0.00 | 0.00 | 48 | 1028.0 |
| 20260905204757 | 101 | 31 | 2.0 | 3.0 | 0.00 | 0.00 | 0.00 | 46 | 1028.0 |
| 20260905204253 | 101 | 28 | 2.0 | 3.0 | 0.00 | 0.00 | 0.00 | 47 | 1028.0 |
| 20260905203752 | 101 | 64 | 0.0 | 0.0 | 0.00 | 0.00 | 0.00 | 49 | 1028.1 |
| 20260905203248 | 101 | 17 | 0.0 | 0.0 | 0.00 | 0.00 | 0.00 | 50 | 1028.4 |
| 20260905202743 | 101 | 23 | 2.0 | 3.0 | 0.00 | 0.00 | 0.00 | 47 | 1028.3 |
| 20260905202238 | 101 | 14 | 0.0 | 0.0 | 0.00 | 0.00 | 0.00 | 48 | 1028.4 |
| 20260905201734 | 102 | 34 | 0.0 | 1.0 | 0.00 | 0.00 | 0.00 | 49 | 1028.4 |
| 20260905201229 | 103 | 301 | 0.0 | 0.0 | 0.00 | 0.00 | 0.00 | 47 | 1028.2 |
| 20260905200723 | 101 | 13 | 1.0 | 1.0 | 0.00 | 0.00 | 0.00 | 47 | 1028.5 |
| 20260905200219 | 101 | 29 | 1.0 | 1.0 | 0.00 | 0.00 | 0.00 | 48 | 1028.6 |
| 20260905195717 | 102 | 280 | 1.0 | 1.0 | 0.00 | 0.00 | 0.00 | 48 | 1028.7 |
| 20260905195212 | 101 | 345 | 2.0 | 5.0 | 0.00 | 0.00 | 0.00 | 49 | 1028.9 |
| 20260905194708 | 102 | 23 | 0.0 | 0.0 | 0.00 | 0.00 | 0.00 | 46 | 1029.0 |
| 20260905194207 | 101 | 321 | 0.0 | 0.0 | 0.00 | 0.00 | 0.00 | 52 | 1029.0 |
| 20260905193701 | 100 | 85 | 0.0 | 0.0 | 0.00 | 0.00 | 0.00 | 53 | 1029.1 |
| 20260905193157 | 101 | 269 | 0.0 | 1.0 | 0.00 | 0.00 | 0.00 | 48 | 1029.2 |
| 20260905192652 | 101 | 25 | 5.0 | 6.0 | 0.00 | 0.00 | 0.00 | 48 | 1029.3 |
| 20260905192149 | 102 | 85 | 2.0 | 3.0 | 0.00 | 0.00 | 0.00 | 48 | 1029.4 |
| 20260905191648 | 100 | 12 | 1.0 | 2.0 | 0.00 | 0.00 | 0.00 | 47 | 1029.4 |
| 20260905191146 | 100 | 45 | 0.0 | 0.0 | 0.00 | 0.00 | 0.00 | 51 | 1029.4 |
| 20260905190645 | 100 | 207 | 1.0 | 2.0 | 0.00 | 0.00 | 0.00 | 54 | 1029.7 |
| 20260905190144 | 100 | 51 | 0.0 | 0.0 | 0.00 | 0.00 | 0.00 | 51 | 1029.7 |
| 20260905185643 | 101 | 210 | 0.0 | 0.0 | 0.00 | 0.00 | 0.00 | 48 | 1029.9 |
| 20260905185138 | 101 | 243 | 0.0 | 1.0 | 0.00 | 0.00 | 0.00 | 48 | 1029.9 |
| 20260905184637 | 101 | 129 | 1.0 | 2.0 | 0.00 | 0.00 | 0.00 | 53 | 1029.9 |
| 20260905184137 | 100 | 71 | 0.0 | 1.0 | 0.00 | 0.00 | 0.00 | 50 | 1029.8 |
| 20260905183636 | 101 | 21 | 0.0 | 0.0 | 0.00 | 0.00 | 0.00 | 51 | 1029.7 |
| 20260905183131 | 100 | 25 | 0.0 | 0.0 | 0.00 | 0.00 | 0.00 | 49 | 1029.9 |
| 20260905182631 | 100 | 233 | 0.0 | 1.0 | 0.00 | 0.00 | 0.00 | 51 | 1030.3 |
| 20260905182131 | 100 | 54 | 0.0 | 1.0 | 0.00 | 0.00 | 0.00 | 50 | 1029.9 |
| 20260905181626 | 100 | 128 | 1.0 | 2.0 | 0.00 | 0.00 | 0.00 | 50 | 1030.0 |
| 20260905181125 | 100 | 219 | 1.0 | 1.0 | 0.00 | 0.00 | 0.00 | 53 | 1029.9 |
| 20260905180620 | 99 | 44 | 0.0 | 0.0 | 0.00 | 0.00 | 0.00 | 53 | 1030.0 |
| 20260905180115 | 98 | 66 | 0.0 | 1.0 | 0.00 | 0.00 | 0.00 | 53 | 1030.3 |
| 20260905175614 | 97 | 21 | 1.0 | 2.0 | 0.00 | 0.00 | 0.00 | 54 | 1030.5 |
| 20260905175109 | 97 | 33 | 1.0 | 2.0 | 0.00 | 0.00 | 0.00 | 56 | 1030.4 |
| 20260905174605 | 97 | 77 | 0.0 | 0.0 | 0.00 | 0.00 | 0.00 | 56 | 1030.4 |
| 20260905174100 | 96 | 44 | 0.0 | 0.0 | 0.00 | 0.00 | 0.00 | 59 | 1030.4 |
| 20260905173557 | 97 | 48 | 0.0 | 0.0 | 0.00 | 0.00 | 0.00 | 62 | 1030.4 |
| 20260905173052 | 98 | 64 | 0.0 | 0.0 | 0.00 | 0.00 | 0.00 | 58 | 1030.6 |
| 20260905172550 | 98 | 36 | 1.0 | 2.0 | 0.00 | 0.00 | 0.00 | 54 | 1030.4 |
| 20260905172046 | 99 | 341 | 0.0 | 0.0 | 0.00 | 0.00 | 0.00 | 58 | 1030.5 |
| 20260905171543 | 98 | 60 | 0.0 | 0.0 | 0.00 | 0.00 | 0.00 | 55 | 1030.8 |
| 20260905171038 | 100 | 59 | 0.0 | 0.0 | 0.00 | 0.00 | 0.00 | 53 | 1030.7 |
| 20260905170535 | 100 | 302 | 0.0 | 0.0 | 0.00 | 0.00 | 0.00 | 53 | 1030.8 |
| 20260905170029 | 98 | 286 | 0.0 | 0.0 | 0.00 | 0.00 | 0.00 | 53 | 1030.9 |
| 20260905165524 | 98 | 182 | 1.0 | 1.0 | 0.00 | 0.00 | 0.00 | 54 | 1030.8 |
| 20260905165014 | 98 | 244 | 1.0 | 2.0 | 0.00 | 0.00 | 0.00 | 53 | 1030.9 |
| 20260905164514 | 98 | 271 | 0.0 | 0.0 | 0.00 | 0.00 | 0.00 | 57 | 1031.0 |
| 20260905164008 | 98 | 51 | 0.0 | 0.0 | 0.00 | 0.00 | 0.00 | 58 | 1031.2 |
| 20260905163505 | 98 | 235 | 0.0 | 0.0 | 0.00 | 0.00 | 0.00 | 56 | 1031.2 |
| 20260905163000 | 98 | 195 | 1.0 | 2.0 | 0.00 | 0.00 | 0.00 | 55 | 1031.1 |
| 20260905162455 | 98 | 63 | 0.0 | 0.0 | 0.00 | 0.00 | 0.00 | 57 | 1031.4 |
| 20260905161950 | 98 | 108 | 0.0 | 0.0 | 0.00 | 0.00 | 0.00 | 56 | 1031.2 |
| 20260905161450 | 98 | 251 | 0.0 | 0.0 | 0.00 | 0.00 | 0.00 | 58 | 1031.2 |
| 20260905160948 | 98 | 225 | 0.0 | 0.0 | 0.00 | 0.00 | 0.00 | 57 | 1031.5 |
| 20260905160442 | 98 | 114 | 0.0 | 0.0 | 0.00 | 0.00 | 0.00 | 59 | 1031.0 |
| 20260905155941 | 97 | 208 | 0.0 | 0.0 | 0.00 | 0.00 | 0.00 | 59 | 1031.4 |
| 20260905155436 | 98 | 171 | 0.0 | 0.0 | 0.00 | 0.00 | 0.00 | 60 | 1031.3 |
| 20260905154935 | 96 | 183 | 0.0 | 0.0 | 0.00 | 0.00 | 0.00 | 60 | 1031.5 |
| 20260905154430 | 97 | 275 | 0.0 | 1.0 | 0.00 | 0.00 | 0.00 | 58 | 1031.6 |
| 20260905153926 | 96 | 15 | 0.0 | 0.0 | 0.00 | 0.00 | 0.00 | 58 | 1031.6 |
| 20260905153422 | 98 | 191 | 0.0 | 0.0 | 0.00 | 0.00 | 0.00 | 60 | 1031.6 |
| 20260905152922 | 98 | 109 | 0.0 | 0.0 | 0.00 | 0.00 | 0.00 | 60 | 1031.6 |
| 20260905152421 | 96 | 101 | 0.0 | 0.0 | 0.00 | 0.00 | 0.00 | 62 | 1031.5 |
| 20260905151916 | 97 | 117 | 0.0 | 0.0 | 0.00 | 0.00 | 0.00 | 61 | 1031.6 |
| 20260905151413 | 95 | 216 | 0.0 | 0.0 | 0.00 | 0.00 | 0.00 | 62 | 1031.6 |
| 20260905150912 | 96 | 222 | 0.0 | 0.0 | 0.00 | 0.00 | 0.00 | 66 | 1031.5 |
| 20260905150407 | 95 | 149 | 0.0 | 0.0 | 0.00 | 0.00 | 0.00 | 66 | 1031.5 |
| 20260905145904 | 95 | 185 | 0.0 | 0.0 | 0.00 | 0.00 | 0.00 | 65 | 1031.6 |
| 20260905145404 | 94 | 210 | 0.0 | 0.0 | 0.00 | 0.00 | 0.00 | 63 | 1031.5 |
| 20260905144903 | 94 | 196 | 0.0 | 0.0 | 0.00 | 0.00 | 0.00 | 67 | 1031.6 |
| 20260905144359 | 93 | 180 | 0.0 | 0.0 | 0.00 | 0.00 | 0.00 | 67 | 1031.5 |
| 20260905143857 | 91 | 98 | 0.0 | 0.0 | 0.00 | 0.00 | 0.00 | 70 | 1031.6 |
| 20260905143352 | 91 | 102 | 0.0 | 0.0 | 0.00 | 0.00 | 0.00 | 72 | 1031.5 |
| 20260905142851 | 92 | 343 | 0.0 | 0.0 | 0.00 | 0.00 | 0.00 | 71 | 1031.6 |
| 20260905142350 | 92 | 310 | 0.0 | 0.0 | 0.00 | 0.00 | 0.00 | 70 | 1031.4 |
| 20260905141846 | 91 | 305 | 0.0 | 0.0 | 0.00 | 0.00 | 0.00 | 72 | 1031.6 |
| 20260905141341 | 91 | 342 | 0.0 | 0.0 | 0.00 | 0.00 | 0.00 | 72 | 1031.5 |
| 20260905140837 | 90 | 332 | 0.0 | 0.0 | 0.00 | 0.00 | 0.00 | 74 | 1031.4 |
| 20260905140337 | 87 | 324 | 0.0 | 0.0 | 0.00 | 0.00 | 0.00 | 77 | 1031.4 |
| 20260905135836 | 87 | 304 | 0.0 | 0.0 | 0.00 | 0.00 | 0.00 | 77 | 1031.3 |
| 20260905135332 | 86 | 334 | 0.0 | 0.0 | 0.00 | 0.00 | 0.00 | 81 | 1031.6 |
| 20260905134828 | 85 | 335 | 0.0 | 0.0 | 0.00 | 0.00 | 0.00 | 83 | 1031.4 |
| 20260905134326 | 84 | 325 | 0.0 | 0.0 | 0.00 | 0.00 | 0.00 | 85 | 1031.5 |
| 20260905133826 | 82 | 351 | 0.0 | 0.0 | 0.00 | 0.00 | 0.00 | 89 | 1031.4 |
| 20260905133322 | 80 | 325 | 0.0 | 0.0 | 0.00 | 0.00 | 0.00 | 93 | 1031.3 |
| 20260905132820 | 79 | 331 | 0.0 | 0.0 | 0.00 | 0.00 | 0.00 | 98 | 1031.4 |
| 20260905132316 | 79 | 4 | 0.0 | 0.0 | 0.00 | 0.00 | 0.00 | 99 | 1031.1 |
| 20260905131810 | 78 | 2 | 0.0 | 0.0 | 0.00 | 0.00 | 0.00 | 99 | 1031.4 |
| 20260905131306 | 78 | 6 | 0.0 | 0.0 | 0.00 | 0.00 | 0.00 | 99 | 1031.3 |
| 20260905130801 | 76 | 0 | 0.0 | 0.0 | 0.00 | 0.00 | 0.00 | 99 | 1031.3 |
| 20260905130300 | 76 | 358 | 0.0 | 0.0 | 0.00 | 0.00 | 0.00 | 99 | 1031.2 |
| 20260905125755 | 75 | 338 | 0.0 | 0.0 | 0.00 | 0.00 | 0.00 | 99 | 1031.1 |
| 20260905125250 | 75 | 2 | 0.0 | 0.0 | 0.00 | 0.00 | 0.00 | 99 | 1031.1 |
| 20260905124747 | 75 | 6 | 0.0 | 0.0 | 0.00 | 0.00 | 0.00 | 99 | 1030.9 |
| 20260905124242 | 75 | 7 | 0.0 | 0.0 | 0.00 | 0.00 | 0.00 | 99 | 1031.0 |
| 20260905123737 | 74 | 7 | 0.0 | 0.0 | 0.00 | 0.00 | 0.00 | 99 | 1031.0 |
| 20260905123235 | 74 | 10 | 0.0 | 0.0 | 0.00 | 0.00 | 0.00 | 99 | 1031.0 |
| 20260905122734 | 73 | 8 | 0.0 | 0.0 | 0.00 | 0.00 | 0.00 | 99 | 1031.2 |
| 20260905122228 | 73 | 19 | 0.0 | 0.0 | 0.00 | 0.00 | 0.00 | 99 | 1031.0 |
| 20260905121723 | 73 | 2 | 0.0 | 0.0 | 0.00 | 0.00 | 0.00 | 99 | 1030.9 |
| 20260905121221 | 73 | 17 | 0.0 | 0.0 | 0.00 | 0.00 | 0.00 | 99 | 1031.1 |
| 20260905120719 | 72 | 8 | 0.0 | 0.0 | 0.00 | 0.00 | 0.00 | 99 | 1030.9 |
| 20260905120214 | 72 | 3 | 0.0 | 0.0 | 0.00 | 0.00 | 0.00 | 99 | 1030.9 |
| 20260905115713 | 72 | 1 | 0.0 | 0.0 | 0.00 | 0.00 | 0.00 | 99 | 1030.8 |
| 20260905115208 | 72 | 8 | 0.0 | 0.0 | 0.00 | 0.00 | 0.00 | 99 | 1030.7 |
| 20260905114708 | 72 | 7 | 0.0 | 0.0 | 0.00 | 0.00 | 0.00 | 99 | 1030.9 |
| 20260905114207 | 72 | 15 | 0.0 | 0.0 | 0.00 | 0.00 | 0.00 | 99 | 1030.8 |
| 20260905113706 | 72 | 28 | 0.0 | 0.0 | 0.00 | 0.00 | 0.00 | 99 | 1030.8 |
| 20260905113203 | 72 | 28 | 0.0 | 0.0 | 0.00 | 0.00 | 0.00 | 99 | 1030.9 |
| 20260905112702 | 72 | 28 | 0.0 | 0.0 | 0.00 | 0.00 | 0.00 | 99 | 1030.6 |
| 20260905112158 | 72 | 29 | 0.0 | 0.0 | 0.00 | 0.00 | 0.00 | 99 | 1030.7 |
| 20260905111657 | 72 | 66 | 0.0 | 0.0 | 0.00 | 0.00 | 0.00 | 99 | 1030.6 |
| 20260905111157 | 72 | 19 | 0.0 | 0.0 | 0.00 | 0.00 | 0.00 | 99 | 1030.8 |
| 20260905110656 | 72 | 23 | 0.0 | 0.0 | 0.00 | 0.00 | 0.00 | 99 | 1030.6 |
| 20260905110151 | 72 | 7 | 0.0 | 0.0 | 0.00 | 0.00 | 0.00 | 99 | 1030.7 |
| 20260905105647 | 72 | 17 | 0.0 | 0.0 | 0.00 | 0.00 | 0.00 | 99 | 1030.4 |
| 20260905105145 | 73 | 7 | 0.0 | 0.0 | 0.00 | 0.00 | 0.00 | 99 | 1030.3 |
| 20260905104640 | 72 | 2 | 0.0 | 0.0 | 0.00 | 0.00 | 0.00 | 99 | 1030.4 |
| 20260905104136 | 72 | 28 | 0.0 | 0.0 | 0.00 | 0.00 | 0.00 | 99 | 1030.3 |
| 20260905103631 | 73 | 54 | 0.0 | 0.0 | 0.00 | 0.00 | 0.00 | 99 | 1030.4 |
| 20260905103127 | 73 | 23 | 0.0 | 0.0 | 0.00 | 0.00 | 0.00 | 99 | 1030.3 |
| 20260905102623 | 73 | 3 | 0.0 | 0.0 | 0.00 | 0.00 | 0.00 | 99 | 1030.6 |
| 20260905102119 | 72 | 18 | 0.0 | 0.0 | 0.00 | 0.00 | 0.00 | 99 | 1030.5 |
| 20260905101617 | 72 | 19 | 0.0 | 0.0 | 0.00 | 0.00 | 0.00 | 99 | 1030.7 |
| 20260905101116 | 72 | 19 | 0.0 | 0.0 | 0.00 | 0.00 | 0.00 | 99 | 1030.3 |
| 20260905100612 | 73 | 19 | 0.0 | 0.0 | 0.00 | 0.00 | 0.00 | 99 | 1030.5 |
| 20260905100107 | 73 | 23 | 0.0 | 0.0 | 0.00 | 0.00 | 0.00 | 99 | 1030.4 |
| 20260905095601 | 73 | 24 | 0.0 | 0.0 | 0.00 | 0.00 | 0.00 | 99 | 1030.3 |
| 20260905095056 | 72 | 20 | 0.0 | 0.0 | 0.00 | 0.00 | 0.00 | 99 | 1030.3 |
| 20260905094551 | 72 | 20 | 0.0 | 0.0 | 0.00 | 0.00 | 0.00 | 99 | 1030.5 |
| 20260905094050 | 73 | 20 | 0.0 | 0.0 | 0.00 | 0.00 | 0.00 | 99 | 1030.2 |
| 20260905093545 | 73 | 20 | 0.0 | 0.0 | 0.00 | 0.00 | 0.00 | 99 | 1030.5 |
| 20260905093042 | 73 | 21 | 0.0 | 0.0 | 0.00 | 0.00 | 0.00 | 99 | 1030.4 |
| 20260905092541 | 73 | 11 | 0.0 | 0.0 | 0.00 | 0.00 | 0.00 | 99 | 1030.5 |
| 20260905092038 | 73 | 12 | 0.0 | 0.0 | 0.00 | 0.00 | 0.00 | 99 | 1030.2 |
| 20260905091536 | 73 | 12 | 0.0 | 0.0 | 0.00 | 0.00 | 0.00 | 99 | 1030.3 |
| 20260905091031 | 73 | 13 | 0.0 | 0.0 | 0.00 | 0.00 | 0.00 | 99 | 1030.3 |
| 20260905090525 | 73 | 10 | 0.0 | 0.0 | 0.00 | 0.00 | 0.00 | 99 | 1030.2 |
| 20260905090021 | 73 | 32 | 0.0 | 0.0 | 0.00 | 0.00 | 0.00 | 99 | 1030.2 |
| 20260905085518 | 73 | 34 | 0.0 | 0.0 | 0.00 | 0.00 | 0.00 | 99 | 1030.2 |
| 20260905085015 | 73 | 35 | 0.0 | 0.0 | 0.00 | 0.00 | 0.00 | 99 | 1030.2 |
| 20260905084515 | 74 | 27 | 0.0 | 0.0 | 0.00 | 0.00 | 0.00 | 99 | 1030.4 |
| 20260905084015 | 74 | 3 | 0.0 | 0.0 | 0.00 | 0.00 | 0.00 | 99 | 1030.4 |
| 20260905083510 | 73 | 16 | 0.0 | 0.0 | 0.00 | 0.00 | 0.00 | 99 | 1030.2 |
| 20260905083006 | 73 | 17 | 0.0 | 0.0 | 0.00 | 0.00 | 0.00 | 99 | 1030.4 |
| 20260905082501 | 73 | 17 | 0.0 | 0.0 | 0.00 | 0.00 | 0.00 | 99 | 1030.6 |
| 20260905081956 | 74 | 37 | 0.0 | 0.0 | 0.00 | 0.00 | 0.00 | 99 | 1030.2 |
| 20260905081451 | 74 | 22 | 0.0 | 0.0 | 0.00 | 0.00 | 0.00 | 99 | 1030.5 |
| 20260905080951 | 74 | 8 | 0.0 | 0.0 | 0.00 | 0.00 | 0.00 | 99 | 1030.4 |
| 20260905080445 | 74 | 27 | 0.0 | 0.0 | 0.00 | 0.00 | 0.00 | 99 | 1030.4 |
| 20260905075944 | 74 | 348 | 0.0 | 0.0 | 0.00 | 0.00 | 0.00 | 99 | 1030.2 |
| 20260905075439 | 74 | 19 | 0.0 | 0.0 | 0.00 | 0.00 | 0.00 | 99 | 1030.2 |
| 20260905074938 | 74 | 15 | 0.0 | 0.0 | 0.00 | 0.00 | 0.00 | 99 | 1030.0 |
| 20260905074434 | 74 | 14 | 0.0 | 0.0 | 0.00 | 0.00 | 0.00 | 99 | 1030.3 |
| 20260905073929 | 74 | 15 | 0.0 | 0.0 | 0.00 | 0.00 | 0.00 | 99 | 1030.2 |
| 20260905073424 | 74 | 12 | 0.0 | 0.0 | 0.00 | 0.00 | 0.00 | 99 | 1030.3 |
| 20260905072919 | 73 | 8 | 0.0 | 0.0 | 0.00 | 0.00 | 0.00 | 99 | 1030.4 |
| 20260905072414 | 74 | 15 | 0.0 | 0.0 | 0.00 | 0.00 | 0.00 | 99 | 1030.3 |
| 20260905071910 | 74 | 17 | 0.0 | 0.0 | 0.00 | 0.00 | 0.00 | 99 | 1030.4 |
| 20260905071402 | 74 | 15 | 0.0 | 0.0 | 0.00 | 0.00 | 0.00 | 99 | 1030.3 |
| 20260905070900 | 74 | 17 | 0.0 | 0.0 | 0.00 | 0.00 | 0.00 | 99 | 1030.3 |
| 20260905070357 | 74 | 9 | 0.0 | 0.0 | 0.00 | 0.00 | 0.00 | 99 | 1030.5 |
| 20260905065857 | 74 | 20 | 0.0 | 0.0 | 0.00 | 0.00 | 0.00 | 99 | 1030.5 |
| 20260905065355 | 74 | 23 | 0.0 | 0.0 | 0.00 | 0.00 | 0.00 | 99 | 1030.4 |
| 20260905064850 | 74 | 16 | 0.0 | 0.0 | 0.00 | 0.00 | 0.00 | 99 | 1030.3 |
| 20260905064345 | 74 | 22 | 0.0 | 0.0 | 0.00 | 0.00 | 0.00 | 99 | 1030.6 |
| 20260905063844 | 74 | 42 | 0.0 | 0.0 | 0.00 | 0.00 | 0.00 | 99 | 1030.5 |
| 20260905063340 | 74 | 23 | 0.0 | 0.0 | 0.00 | 0.00 | 0.00 | 99 | 1030.4 |
| 20260905062836 | 75 | 20 | 0.0 | 0.0 | 0.00 | 0.00 | 0.00 | 99 | 1030.5 |
| 20260905062330 | 75 | 18 | 0.0 | 0.0 | 0.00 | 0.00 | 0.00 | 99 | 1030.4 |
| 20260905061825 | 75 | 14 | 0.0 | 0.0 | 0.00 | 0.00 | 0.00 | 99 | 1030.6 |
| 20260905061319 | 75 | 17 | 0.0 | 0.0 | 0.00 | 0.00 | 0.00 | 99 | 1030.7 |
| 20260905060814 | 75 | 14 | 0.0 | 0.0 | 0.00 | 0.00 | 0.00 | 99 | 1030.6 |
| 20260905060311 | 75 | 12 | 0.0 | 0.0 | 0.00 | 0.00 | 0.00 | 99 | 1030.6 |
| 20260905055809 | 75 | 11 | 0.0 | 0.0 | 0.00 | 0.00 | 0.00 | 99 | 1030.4 |
| 20260905055259 | 75 | 16 | 0.0 | 0.0 | 0.00 | 0.00 | 0.00 | 99 | 1030.6 |
| 20260905054759 | 75 | 43 | 0.0 | 0.0 | 0.00 | 0.00 | 0.00 | 99 | 1030.8 |
| 20260905054255 | 75 | 25 | 0.0 | 0.0 | 0.00 | 0.00 | 0.00 | 99 | 1030.5 |
| 20260905053754 | 75 | 15 | 0.0 | 0.0 | 0.00 | 0.00 | 0.00 | 99 | 1030.7 |
| 20260905053245 | 75 | 17 | 0.0 | 0.0 | 0.00 | 0.00 | 0.00 | 99 | 1030.9 |
| 20260905052743 | 75 | 22 | 0.0 | 0.0 | 0.00 | 0.00 | 0.00 | 99 | 1030.7 |
| 20260905052238 | 75 | 21 | 0.0 | 0.0 | 0.00 | 0.00 | 0.00 | 99 | 1030.8 |
| 20260905051738 | 75 | 26 | 0.0 | 0.0 | 0.00 | 0.00 | 0.00 | 99 | 1030.7 |
| 20260905051235 | 76 | 64 | 0.0 | 1.0 | 0.00 | 0.00 | 0.00 | 99 | 1030.6 |
| 20260905050731 | 76 | 32 | 0.0 | 0.0 | 0.00 | 0.00 | 0.00 | 99 | 1030.8 |
| 20260905050227 | 76 | 24 | 0.0 | 0.0 | 0.00 | 0.00 | 0.00 | 99 | 1030.7 |
| 20260905045727 | 76 | 17 | 0.0 | 0.0 | 0.00 | 0.00 | 0.00 | 99 | 1030.7 |
| 20260905045222 | 76 | 354 | 0.0 | 0.0 | 0.00 | 0.00 | 0.00 | 99 | 1030.7 |
| 20260905044717 | 76 | 5 | 0.0 | 0.0 | 0.00 | 0.00 | 0.00 | 99 | 1031.0 |
| 20260905044213 | 76 | 19 | 0.0 | 0.0 | 0.00 | 0.00 | 0.00 | 99 | 1030.8 |
| 20260905043711 | 76 | 15 | 0.0 | 0.0 | 0.00 | 0.00 | 0.00 | 99 | 1030.6 |
| 20260905043206 | 76 | 21 | 0.0 | 0.0 | 0.00 | 0.00 | 0.00 | 99 | 1031.0 |
| 20260905042701 | 76 | 10 | 0.0 | 0.0 | 0.00 | 0.00 | 0.00 | 99 | 1031.1 |
| 20260905042200 | 76 | 26 | 0.0 | 0.0 | 0.00 | 0.00 | 0.00 | 99 | 1030.9 |
| 20260905041656 | 76 | 24 | 0.0 | 0.0 | 0.00 | 0.00 | 0.00 | 99 | 1031.0 |
| 20260905041151 | 76 | 17 | 0.0 | 0.0 | 0.00 | 0.00 | 0.00 | 99 | 1030.8 |
| 20260905040646 | 76 | 9 | 0.0 | 0.0 | 0.00 | 0.00 | 0.00 | 99 | 1030.7 |
| 20260905040145 | 77 | 25 | 0.0 | 0.0 | 0.00 | 0.00 | 0.00 | 99 | 1030.9 |
| 20260905035640 | 77 | 20 | 0.0 | 0.0 | 0.00 | 0.00 | 0.00 | 99 | 1031.0 |
| 20260905035137 | 77 | 23 | 0.0 | 0.0 | 0.00 | 0.00 | 0.00 | 99 | 1030.9 |
| 20260905034633 | 77 | 20 | 0.0 | 0.0 | 0.00 | 0.00 | 0.00 | 99 | 1030.9 |
| 20260905034132 | 77 | 31 | 0.0 | 0.0 | 0.00 | 0.00 | 0.00 | 99 | 1030.8 |
| 20260905033631 | 77 | 30 | 0.0 | 0.0 | 0.00 | 0.00 | 0.00 | 98 | 1030.9 |
| 20260905033127 | 77 | 30 | 0.0 | 0.0 | 0.00 | 0.00 | 0.00 | 98 | 1030.9 |
| 20260905032622 | 77 | 30 | 0.0 | 0.0 | 0.00 | 0.00 | 0.00 | 98 | 1030.9 |
| 20260905032121 | 77 | 47 | 0.0 | 0.0 | 0.00 | 0.00 | 0.00 | 98 | 1031.0 |